Time;durP1;ratioP1;P1;durP2;ratioP2;P2;SDS_P1;SDS_P2;PMS_P1;PMS_P2;Temp;Humidity;BMP_temperature;BMP_pressure;BME280_temperature;BME280_humidity;BME280_pressure;Samples;Min_cycle;Max_cycle;Signal;HPM_P1;HPM_P2
2022/10/28 00:01:34;;;;;;;14.88;5.50;;;17.40;83.70;;;;;;9174902;19;20010;-70
2022/10/28 00:04:37;;;;;;;;;;;17.40;84.30;;;;;;9174650;19;20048;-70
2022/10/28 00:07:41;;;;;;;15.98;5.18;;;17.40;83.80;;;;;;9173249;19;20272;-72
2022/10/28 00:10:47;;;;;;;21.23;5.63;;;17.40;84.50;;;;;;9175161;19;20069;-69
2022/10/28 00:13:53;;;;;;;14.57;5.75;;;17.30;84.00;;;;;;9174508;19;20025;-71
2022/10/28 00:16:56;;;;;;;17.42;5.40;;;17.30;83.40;;;;;;9174263;19;20033;-71
2022/10/28 00:20:00;;;;;;;12.27;5.75;;;17.20;83.70;;;;;;9174881;19;20018;-71
2022/10/28 00:23:04;;;;;;;10.27;5.20;;;17.30;83.70;;;;;;9173950;19;20015;-71
2022/10/28 00:26:12;;;;;;;13.13;4.90;;;17.40;84.10;;;;;;9173463;19;20022;-70
2022/10/28 00:29:17;;;;;;;15.38;6.35;;;17.30;83.80;;;;;;9170834;19;20014;-71
2022/10/28 00:32:21;;;;;;;12.65;5.30;;;17.30;84.00;;;;;;9169749;19;20037;-71
2022/10/28 00:35:25;;;;;;;17.70;6.05;;;17.30;84.10;;;;;;9173707;19;20026;-71
2022/10/28 00:38:31;;;;;;;15.55;5.70;;;17.30;84.20;;;;;;9170298;19;20479;-70
2022/10/28 00:41:40;;;;;;;12.07;5.47;;;17.30;84.00;;;;;;9173267;19;20187;-70
2022/10/28 00:44:55;;;;;;;16.38;5.72;;;17.20;84.20;;;;;;9174040;19;20464;-71
2022/10/28 00:48:01;;;;;;;11.10;4.93;;;17.20;84.10;;;;;;9170287;19;20025;-69
2022/10/28 00:51:05;;;;;;;27.55;5.15;;;17.10;84.00;;;;;;9174095;19;20014;-70
2022/10/28 00:54:09;;;;;;;15.30;5.95;;;17.20;84.20;;;;;;9172300;19;20018;-71
2022/10/28 00:57:16;;;;;;;;;;;17.20;84.20;;;;;;9174141;19;20022;-67
2022/10/28 01:00:20;;;;;;;10.98;5.00;;;17.10;84.20;;;;;;9172718;19;19918;-72
2022/10/28 01:03:24;;;;;;;;;;;17.10;84.00;;;;;;9173821;19;20102;-69
2022/10/28 01:06:29;;;;;;;10.77;5.18;;;17.10;84.00;;;;;;9171979;19;19930;-70
2022/10/28 01:09:33;;;;;;;17.38;5.63;;;17.10;83.90;;;;;;9173220;19;20052;-70
2022/10/28 01:12:49;;;;;;;9.88;5.22;;;17.00;84.00;;;;;;9172338;19;20121;-70
2022/10/28 01:16:00;;;;;;;13.73;5.05;;;17.00;84.10;;;;;;9172531;19;20512;-70
2022/10/28 01:19:27;;;;;;;15.90;5.55;;;17.00;83.80;;;;;;9172806;19;20011;-71
2022/10/28 01:22:34;;;;;;;20.48;5.70;;;16.90;83.90;;;;;;9170424;19;20015;-71
2022/10/28 01:25:58;;;;;;;17.17;5.45;;;16.90;83.80;;;;;;9170250;19;20828;-69
2022/10/28 01:29:34;;;;;;;14.95;5.63;;;16.90;83.70;;;;;;9169123;19;20438;-71
2022/10/28 01:32:52;;;;;;;12.85;5.47;;;16.90;83.60;;;;;;9167380;19;20010;-68
2022/10/28 01:36:03;;;;;;;14.20;5.15;;;16.80;83.20;;;;;;9173091;19;20018;-71
2022/10/28 01:39:14;;;;;;;17.67;5.45;;;16.80;84.20;;;;;;9171466;19;20434;-69
2022/10/28 01:42:28;;;;;;;15.68;5.32;;;16.70;84.00;;;;;;9171082;19;20037;-71
2022/10/28 01:45:38;;;;;;;10.52;5.25;;;16.70;83.90;;;;;;9171656;19;20011;-69
2022/10/28 01:48:47;;;;;;;13.70;5.65;;;16.60;84.40;;;;;;9170547;19;20014;-71
2022/10/28 01:51:54;;;;;;;12.80;5.50;;;16.60;84.40;;;;;;9179997;19;20014;-71
2022/10/28 01:55:03;;;;;;;13.90;5.43;;;16.60;84.30;;;;;;9179214;19;20019;-70
2022/10/28 01:58:09;;;;;;;14.10;5.57;;;16.50;83.90;;;;;;9179279;19;20056;-71
2022/10/28 02:01:14;;;;;;;13.77;5.28;;;16.50;84.20;;;;;;9179128;19;20010;-70
2022/10/28 02:04:19;;;;;;;11.75;5.47;;;16.50;83.90;;;;;;9179220;19;20054;-69
2022/10/28 02:07:23;;;;;;;17.02;6.88;;;16.40;83.90;;;;;;9178121;19;20028;-70
2022/10/28 02:10:34;;;;;;;14.93;5.53;;;16.40;84.00;;;;;;9178263;19;20015;-70
2022/10/28 02:13:45;;;;;;;14.80;5.50;;;16.40;84.20;;;;;;9178819;19;20625;-70
2022/10/28 02:16:51;;;;;;;9.52;5.65;;;16.30;84.10;;;;;;9177364;19;20022;-69
2022/10/28 02:20:07;;;;;;;10.23;5.85;;;16.30;84.40;;;;;;9177926;19;20078;-70
2022/10/28 02:23:18;;;;;;;13.77;6.15;;;16.20;84.40;;;;;;9178179;19;20476;-69
2022/10/28 02:26:26;;;;;;;16.67;6.20;;;16.20;84.60;;;;;;9178390;19;20015;-70
2022/10/28 02:29:33;;;;;;;15.27;5.88;;;16.20;84.20;;;;;;9179077;19;20023;-70
2022/10/28 02:32:39;;;;;;;19.65;6.10;;;16.20;84.40;;;;;;9174215;19;20021;-70
2022/10/28 02:35:48;;;;;;;13.05;5.80;;;16.10;84.70;;;;;;9176416;19;20022;-70
2022/10/28 02:38:54;;;;;;;14.30;6.05;;;16.00;84.40;;;;;;9177434;19;20025;-70
2022/10/28 02:42:01;;;;;;;15.48;6.80;;;16.00;84.50;;;;;;9177556;19;20022;-69
2022/10/28 02:45:10;;;;;;;15.05;7.22;;;16.00;84.70;;;;;;9177775;19;20024;-70
2022/10/28 02:48:19;;;;;;;13.25;6.00;;;15.90;84.50;;;;;;9176289;19;20168;-69
2022/10/28 02:51:29;;;;;;;12.85;6.03;;;15.90;84.50;;;;;;9179148;19;20025;-66
2022/10/28 02:54:38;;;;;;;18.60;6.43;;;15.90;84.80;;;;;;9175918;19;20026;-70
2022/10/28 02:57:47;;;;;;;15.55;5.35;;;15.80;84.90;;;;;;9177694;19;20011;-69
2022/10/28 03:00:51;;;;;;;13.20;6.13;;;15.80;84.70;;;;;;9174875;19;20026;-71
2022/10/28 03:03:55;;;;;;;14.05;6.00;;;15.70;84.50;;;;;;9176477;19;20347;-71
2022/10/28 03:07:00;;;;;;;21.10;6.82;;;15.60;84.20;;;;;;9175876;19;20432;-69
2022/10/28 03:10:04;;;;;;;12.30;5.35;;;15.70;84.70;;;;;;9177354;19;20349;-70
2022/10/28 03:13:08;;;;;;;17.70;6.00;;;15.60;84.50;;;;;;9176134;19;20125;-70
2022/10/28 03:16:12;;;;;;;13.38;6.78;;;15.60;84.80;;;;;;9175508;19;20044;-68
2022/10/28 03:19:15;;;;;;;17.25;6.40;;;15.60;84.70;;;;;;9176531;19;20048;-69
2022/10/28 03:22:21;;;;;;;12.45;6.35;;;15.50;84.80;;;;;;9176820;19;20023;-69
2022/10/28 03:25:25;;;;;;;15.10;6.20;;;15.50;84.90;;;;;;9175297;19;20475;-69
2022/10/28 03:28:28;;;;;;;13.60;5.63;;;15.40;84.70;;;;;;9174926;19;20022;-70
2022/10/28 03:31:32;;;;;;;14.25;7.22;;;15.40;84.40;;;;;;9171834;19;20454;-71
2022/10/28 03:34:35;;;;;;;11.80;6.28;;;15.40;84.60;;;;;;9175270;19;20021;-68
2022/10/28 03:37:42;;;;;;;16.17;5.80;;;15.30;84.90;;;;;;9177171;19;20017;-70
2022/10/28 03:40:48;;;;;;;11.43;6.47;;;15.30;84.50;;;;;;9176264;19;20032;-69
2022/10/28 03:43:52;;;;;;;13.80;6.15;;;15.20;84.70;;;;;;9175313;19;20066;-70
2022/10/28 03:46:55;;;;;;;15.20;5.75;;;15.20;84.60;;;;;;9175666;19;20046;-68
2022/10/28 03:49:59;;;;;;;23.80;6.78;;;15.20;84.70;;;;;;9175250;19;20034;-70
2022/10/28 03:53:04;;;;;;;22.52;6.60;;;15.20;84.60;;;;;;9176236;19;20022;-70
2022/10/28 03:56:09;;;;;;;14.43;5.50;;;15.10;84.60;;;;;;9175644;19;20011;-70
2022/10/28 03:59:12;;;;;;;19.75;6.55;;;15.20;84.70;;;;;;9175488;19;20006;-70
2022/10/28 04:02:20;;;;;;;14.32;5.55;;;15.10;85.00;;;;;;9175283;19;20387;-70
2022/10/28 04:05:24;;;;;;;15.77;5.82;;;15.10;84.80;;;;;;9172442;19;20022;-70
2022/10/28 04:08:30;;;;;;;15.32;6.03;;;15.00;85.00;;;;;;9173229;19;20071;-70
2022/10/28 04:11:33;;;;;;;12.80;5.63;;;15.00;84.80;;;;;;9173990;19;20025;-70
2022/10/28 04:14:37;;;;;;;23.90;6.03;;;15.00;85.00;;;;;;9171011;19;20535;-69
2022/10/28 04:17:41;;;;;;;12.35;5.85;;;15.00;85.10;;;;;;9172904;19;20018;-70
2022/10/28 04:20:46;;;;;;;11.77;6.25;;;14.90;85.10;;;;;;9173923;19;20022;-68
2022/10/28 04:23:51;;;;;;;15.48;5.97;;;14.90;85.20;;;;;;9174782;19;20018;-69
2022/10/28 04:26:55;;;;;;;13.23;5.82;;;14.90;85.10;;;;;;9173921;19;20048;-69
2022/10/28 04:29:58;;;;;;;15.23;6.38;;;14.90;85.20;;;;;;9173557;19;20025;-70
2022/10/28 04:33:02;;;;;;;14.75;5.68;;;14.80;85.10;;;;;;9169866;19;20034;-70
2022/10/28 04:36:06;;;;;;;16.92;5.78;;;14.80;84.70;;;;;;9174478;19;20863;-69
2022/10/28 04:39:12;;;;;;;12.90;5.85;;;14.70;84.70;;;;;;9173182;19;20034;-70
2022/10/28 04:42:16;;;;;;;14.93;5.78;;;14.70;85.00;;;;;;9173593;19;20021;-70
2022/10/28 04:45:20;;;;;;;10.93;5.82;;;14.70;85.30;;;;;;9174191;19;20054;-68
2022/10/28 04:48:23;;;;;;;14.15;6.80;;;14.70;85.30;;;;;;9172203;19;20014;-71
2022/10/28 04:51:27;;;;;;;12.45;6.05;;;14.70;85.60;;;;;;9170011;19;20050;-69
2022/10/28 04:54:33;;;;;;;17.13;5.00;;;14.60;85.30;;;;;;9172643;19;20010;-70
2022/10/28 04:57:36;;;;;;;9.20;5.85;;;14.60;85.20;;;;;;9172952;19;20026;-69
2022/10/28 05:00:40;;;;;;;10.30;5.70;;;14.60;85.50;;;;;;9172258;19;20452;-71
2022/10/28 05:03:44;;;;;;;16.27;6.93;;;14.50;85.40;;;;;;9171289;19;20038;-69
2022/10/28 05:06:48;;;;;;;15.13;5.80;;;14.60;85.50;;;;;;9172592;19;20022;-70
2022/10/28 05:09:53;;;;;;;;;;;14.50;85.40;;;;;;9171109;19;20026;-71
2022/10/28 05:12:57;;;;;;;14.65;5.47;;;14.50;85.20;;;;;;9169634;19;19946;-70
2022/10/28 05:16:00;;;;;;;14.55;5.75;;;14.50;85.40;;;;;;9166967;19;20014;-69
2022/10/28 05:19:04;;;;;;;14.52;5.47;;;14.50;85.30;;;;;;9172098;19;20026;-69
2022/10/28 05:22:07;;;;;;;14.95;6.70;;;14.40;85.80;;;;;;9170981;19;20028;-68
2022/10/28 05:25:13;;;;;;;19.00;7.60;;;14.40;85.50;;;;;;9171433;19;20025;-70
2022/10/28 05:28:17;;;;;;;16.88;5.82;;;14.40;85.90;;;;;;9172424;19;20021;-70
2022/10/28 05:31:20;;;;;;;;;;;14.40;85.80;;;;;;9172822;19;20052;-70
2022/10/28 05:34:24;;;;;;;15.50;6.40;;;14.40;85.50;;;;;;9174204;19;19919;-70
2022/10/28 05:37:28;;;;;;;22.27;6.90;;;14.40;85.50;;;;;;9178112;19;20024;-69
2022/10/28 05:40:34;;;;;;;24.65;6.75;;;14.40;85.70;;;;;;9174724;19;20014;-71
2022/10/28 05:43:37;;;;;;;19.17;6.60;;;14.40;85.80;;;;;;9178966;19;20039;-70
2022/10/28 05:46:41;;;;;;;22.60;6.38;;;14.50;86.20;;;;;;9180344;19;20589;-70
2022/10/28 05:49:45;;;;;;;16.67;6.60;;;14.50;85.80;;;;;;9176791;19;20018;-70
2022/10/28 05:52:49;;;;;;;23.48;6.68;;;14.50;85.90;;;;;;9178776;19;20089;-70
2022/10/28 05:55:55;;;;;;;18.85;6.55;;;14.50;85.90;;;;;;9179986;19;20095;-72
2022/10/28 05:58:59;;;;;;;21.50;6.95;;;14.60;86.20;;;;;;9179254;19;20021;-70
2022/10/28 06:02:02;;;;;;;18.25;6.05;;;14.60;86.00;;;;;;9178849;19;20026;-69
2022/10/28 06:05:07;;;;;;;16.10;6.03;;;14.60;86.20;;;;;;9175889;19;20022;-69
2022/10/28 06:08:12;;;;;;;23.83;5.85;;;14.60;86.30;;;;;;9177851;19;20023;-71
2022/10/28 06:11:17;;;;;;;14.27;5.68;;;14.60;86.60;;;;;;9179014;19;20122;-70
2022/10/28 06:14:21;;;;;;;23.58;7.15;;;14.70;86.60;;;;;;9178968;19;20018;-70
2022/10/28 06:17:25;;;;;;;31.27;6.43;;;14.70;86.60;;;;;;9179291;19;20044;-70
2022/10/28 06:20:29;;;;;;;26.85;7.25;;;14.70;86.70;;;;;;9175345;19;20120;-71
2022/10/28 06:23:33;;;;;;;25.73;6.40;;;14.70;86.50;;;;;;9170086;19;20041;-68
2022/10/28 06:26:38;;;;;;;15.82;6.32;;;14.80;86.70;;;;;;9171557;19;20018;-70
2022/10/28 06:29:42;;;;;;;20.70;5.78;;;14.80;86.60;;;;;;9169536;19;20046;-69
2022/10/28 06:32:45;;;;;;;21.90;6.90;;;14.80;86.40;;;;;;9167320;19;20520;-68
2022/10/28 06:35:49;;;;;;;21.67;5.75;;;14.90;86.60;;;;;;9173317;19;20455;-69
2022/10/28 06:38:54;;;;;;;21.95;7.53;;;14.90;86.70;;;;;;9175967;19;20106;-71
2022/10/28 06:42:00;;;;;;;16.90;5.80;;;14.90;87.20;;;;;;9179361;19;20019;-71
2022/10/28 06:45:04;;;;;;;21.98;7.20;;;15.00;87.10;;;;;;9178118;19;20019;-71
2022/10/28 06:48:08;;;;;;;21.25;5.68;;;15.10;86.80;;;;;;9176999;19;20018;-72
2022/10/28 06:51:11;;;;;;;14.05;6.22;;;15.10;86.70;;;;;;9177365;19;20048;-71
2022/10/28 06:54:15;;;;;;;22.60;7.32;;;15.20;87.00;;;;;;9178867;19;20010;-68
2022/10/28 06:57:20;;;;;;;20.27;6.30;;;15.20;87.10;;;;;;9176119;19;20403;-70
2022/10/28 07:00:32;;;;;;;17.48;6.05;;;15.30;86.80;;;;;;9178070;19;20098;-68
2022/10/28 07:03:36;;;;;;;20.05;6.03;;;15.40;87.30;;;;;;9174444;19;20035;-70
2022/10/28 07:06:39;;;;;;;;;;;15.40;87.80;;;;;;9178226;19;20018;-71
2022/10/28 07:09:44;;;;;;;23.52;6.63;;;15.40;86.70;;;;;;9174224;19;19921;-69
2022/10/28 07:12:50;;;;;;;27.83;6.07;;;15.50;86.90;;;;;;9177790;19;20078;-68
2022/10/28 07:15:54;;;;;;;18.27;5.65;;;15.60;87.00;;;;;;9176653;19;20014;-69
2022/10/28 07:18:58;;;;;;;20.65;6.38;;;15.60;87.30;;;;;;9175277;19;20014;-70
2022/10/28 07:22:02;;;;;;;16.83;5.43;;;15.60;87.30;;;;;;9177646;19;20039;-70
2022/10/28 07:25:06;;;;;;;26.92;6.65;;;15.70;87.40;;;;;;9176543;19;20185;-72
2022/10/28 07:28:12;;;;;;;21.55;5.78;;;15.70;87.00;;;;;;9176278;19;20010;-70
2022/10/28 07:31:16;;;;;;;18.95;6.90;;;15.80;86.70;;;;;;9173007;19;20102;-70
2022/10/28 07:34:20;;;;;;;17.70;6.07;;;15.80;87.00;;;;;;9176670;19;20099;-69
2022/10/28 07:37:30;;;;;;;22.10;5.65;;;15.90;87.20;;;;;;9173969;19;20016;-70
2022/10/28 07:40:33;;;;;;;22.38;6.32;;;15.90;87.10;;;;;;9175496;19;20018;-68
2022/10/28 07:43:40;;;;;;;18.40;5.85;;;16.00;87.10;;;;;;9175931;19;20018;-71
2022/10/28 07:46:43;;;;;;;19.20;5.82;;;16.00;87.00;;;;;;9175843;19;20026;-70
2022/10/28 07:49:47;;;;;;;16.52;5.43;;;16.10;87.20;;;;;;9171820;19;20011;-69
2022/10/28 07:52:51;;;;;;;29.92;6.82;;;16.20;87.60;;;;;;9175115;19;20022;-69
2022/10/28 07:55:59;;;;;;;14.52;5.55;;;16.20;87.50;;;;;;9175184;19;20039;-70
2022/10/28 07:59:04;;;;;;;14.43;5.32;;;16.30;87.80;;;;;;9173663;19;20019;-70
2022/10/28 08:02:08;;;;;;;19.38;6.53;;;16.30;87.20;;;;;;9175858;19;20014;-70
2022/10/28 08:05:12;;;;;;;26.58;6.53;;;16.40;87.40;;;;;;9172590;19;20044;-70
2022/10/28 08:08:15;;;;;;;19.45;5.95;;;16.50;87.50;;;;;;9171235;19;20032;-70
2022/10/28 08:11:21;;;;;;;21.88;6.57;;;16.50;87.10;;;;;;9175117;19;20024;-69
2022/10/28 08:14:27;;;;;;;18.73;6.30;;;16.20;87.70;;;;;;9175870;19;20014;-72
2022/10/28 08:17:30;;;;;;;17.30;5.75;;;16.70;87.00;;;;;;9174726;19;20492;-72
2022/10/28 08:20:34;;;;;;;21.13;6.47;;;16.80;87.10;;;;;;9175242;19;20097;-72
2022/10/28 08:23:38;;;;;;;17.48;6.05;;;16.80;87.20;;;;;;9171539;19;20427;-69
2022/10/28 08:26:42;;;;;;;16.10;6.07;;;16.90;87.10;;;;;;9167320;19;20459;-71
2022/10/28 08:29:47;;;;;;;28.95;7.00;;;17.00;87.40;;;;;;9165209;19;20034;-72
2022/10/28 08:32:51;;;;;;;26.88;6.15;;;17.00;87.20;;;;;;9163949;19;21071;-70
2022/10/28 08:35:55;;;;;;;16.17;5.78;;;17.10;87.00;;;;;;9166969;19;20018;-70
2022/10/28 08:39:00;;;;;;;20.83;7.03;;;17.20;86.90;;;;;;9166543;19;20021;-70
2022/10/28 08:42:21;;;;;;;23.67;6.28;;;17.30;86.80;;;;;;9168311;19;20018;-69
2022/10/28 08:45:40;;;;;;;19.90;5.50;;;17.30;86.70;;;;;;9169384;19;20475;-72
2022/10/28 08:48:44;;;;;;;16.85;5.00;;;17.40;86.80;;;;;;9165491;19;20019;-69
2022/10/28 08:51:51;;;;;;;;;;;17.50;86.80;;;;;;9168868;19;20486;-70
2022/10/28 08:54:59;;;;;;;11.85;5.05;;;17.60;86.60;;;;;;9170379;19;19998;-69
2022/10/28 08:58:08;;;;;;;23.38;6.47;;;17.60;86.80;;;;;;9173134;19;20030;-72
2022/10/28 09:01:22;;;;;;;20.05;6.32;;;17.60;86.60;;;;;;9181208;19;20006;-71
2022/10/28 09:04:34;;;;;;;17.92;5.90;;;17.70;86.40;;;;;;9180630;19;20025;-71
2022/10/28 09:07:38;;;;;;;25.02;5.70;;;17.90;87.00;;;;;;9181503;19;20018;-70
2022/10/28 09:11:00;;;;;;;18.08;5.20;;;17.90;86.40;;;;;;9180868;19;20479;-73
2022/10/28 09:14:29;;;;;;;17.98;6.03;;;18.00;86.60;;;;;;9180102;19;20126;-71
2022/10/28 09:17:43;;;;;;;25.80;5.50;;;18.20;86.10;;;;;;9180256;19;20410;-71
2022/10/28 09:20:53;;;;;;;23.42;5.28;;;18.30;86.50;;;;;;9177450;19;20548;-71
2022/10/28 09:23:59;;;;;;;19.13;5.53;;;18.40;86.90;;;;;;9175647;19;20015;-72
2022/10/28 09:27:09;;;;;;;25.45;6.18;;;18.50;86.10;;;;;;9176275;19;20822;-72
2022/10/28 09:30:27;;;;;;;19.88;5.45;;;18.60;86.30;;;;;;9174176;19;20014;-71
2022/10/28 09:34:06;;;;;;;20.35;5.35;;;18.80;85.90;;;;;;9173681;19;20402;-71
2022/10/28 09:37:18;;;;;;;13.27;4.85;;;18.90;85.40;;;;;;9179171;19;20025;-71
2022/10/28 09:40:25;;;;;;;14.98;4.82;;;19.10;85.80;;;;;;9179206;19;20026;-73
2022/10/28 09:43:32;;;;;;;25.30;6.00;;;19.20;85.70;;;;;;9181213;19;20471;-73
2022/10/28 09:46:37;;;;;;;16.38;5.45;;;19.40;85.80;;;;;;9178343;19;20106;-70
2022/10/28 09:49:43;;;;;;;13.38;4.53;;;19.50;85.10;;;;;;9175932;19;20019;-72
2022/10/28 09:52:53;;;;;;;18.45;5.50;;;19.60;85.30;;;;;;9178806;19;20010;-71
2022/10/28 09:55:57;;;;;;;20.17;4.50;;;19.70;85.00;;;;;;9179411;19;20018;-70
2022/10/28 09:59:03;;;;;;;22.48;5.40;;;19.90;85.40;;;;;;9179411;19;20353;-74
2022/10/28 10:02:19;;;;;;;14.70;4.38;;;20.80;85.40;;;;;;9179329;19;20029;-72
2022/10/28 10:05:27;;;;;;;18.90;5.00;;;20.10;84.50;;;;;;9176968;19;20723;-72
2022/10/28 10:08:31;;;;;;;19.27;4.72;;;20.30;84.50;;;;;;9177130;19;20019;-72
2022/10/28 10:11:39;;;;;;;16.40;4.18;;;20.40;84.60;;;;;;9177424;19;20015;-71
2022/10/28 10:14:48;;;;;;;19.65;4.43;;;20.50;84.70;;;;;;9179047;19;20023;-71
2022/10/28 10:17:53;;;;;;;16.45;4.30;;;20.60;84.40;;;;;;9179436;19;20023;-74
2022/10/28 10:21:00;;;;;;;17.10;4.30;;;20.80;84.30;;;;;;9178260;19;20432;-69
2022/10/28 10:24:05;;;;;;;19.25;4.75;;;20.90;83.70;;;;;;9179092;19;20082;-72
2022/10/28 10:27:19;;;;;;;18.88;4.45;;;21.00;83.70;;;;;;9178492;19;20015;-71
2022/10/28 10:30:24;;;;;;;;;;;21.10;83.50;;;;;;9177259;19;20011;-71
2022/10/28 10:33:32;;;;;;;15.38;3.92;;;21.20;83.80;;;;;;9174648;19;19934;-70
2022/10/28 10:36:37;;;;;;;17.58;5.05;;;21.30;83.50;;;;;;9179204;19;20014;-75
2022/10/28 10:39:41;;;;;;;13.90;4.15;;;21.50;83.20;;;;;;9179439;19;20029;-73
2022/10/28 10:42:45;;;;;;;27.60;4.88;;;21.50;83.20;;;;;;9178002;19;20022;-73
2022/10/28 10:46:16;;;;;;;15.65;4.78;;;21.60;83.00;;;;;;9177835;19;20014;-74
2022/10/28 10:49:20;;;;;;;21.60;4.72;;;21.80;82.90;;;;;;9176561;19;20014;-71
2022/10/28 10:52:28;;;;;;;23.35;4.93;;;21.90;82.70;;;;;;9176296;19;20014;-73
2022/10/28 10:55:37;;;;;;;21.70;4.28;;;21.90;82.30;;;;;;9176814;19;20044;-72
2022/10/28 10:58:50;;;;;;;10.27;4.32;;;22.10;82.60;;;;;;9176101;19;20019;-71
2022/10/28 11:01:55;;;;;;;16.00;4.22;;;22.10;81.80;;;;;;9177521;19;20394;-73
2022/10/28 11:05:03;;;;;;;22.65;4.78;;;22.20;81.70;;;;;;9175094;19;20464;-74
2022/10/28 11:08:28;;;;;;;20.83;4.57;;;22.20;81.60;;;;;;9177725;19;20015;-71
2022/10/28 11:11:36;;;;;;;20.00;4.60;;;22.30;81.00;;;;;;9176231;19;20029;-73
2022/10/28 11:14:53;;;;;;;21.75;4.63;;;22.30;81.10;;;;;;9177345;19;20010;-72
2022/10/28 11:18:01;;;;;;;21.13;5.38;;;22.40;81.00;;;;;;9178537;19;20843;-72
2022/10/28 11:21:11;;;;;;;21.45;4.70;;;22.40;81.00;;;;;;9174871;19;20017;-71
2022/10/28 11:24:45;;;;;;;14.95;4.00;;;22.40;80.90;;;;;;9176630;19;20018;-74
2022/10/28 11:27:58;;;;;;;18.20;4.50;;;22.40;80.20;;;;;;9176097;19;20764;-71
2022/10/28 11:31:28;;;;;;;13.35;4.68;;;22.40;80.50;;;;;;9171308;19;20107;-72
2022/10/28 11:34:50;;;;;;;15.65;4.00;;;22.40;80.70;;;;;;9177693;19;20010;-72
2022/10/28 11:38:06;;;;;;;15.63;4.03;;;22.50;80.50;;;;;;9175944;19;20018;-72
2022/10/28 11:41:21;;;;;;;24.63;4.47;;;22.40;80.30;;;;;;9173656;19;20026;-71
2022/10/28 11:44:34;;;;;;;19.65;4.05;;;22.50;80.30;;;;;;9173106;19;20022;-72
2022/10/28 11:47:53;;;;;;;15.07;3.90;;;22.50;79.90;;;;;;9176543;19;20011;-72
2022/10/28 11:51:10;;;;;;;21.52;5.05;;;22.50;79.80;;;;;;9175542;19;20488;-71
2022/10/28 11:54:37;;;;;;;18.45;4.28;;;22.60;79.60;;;;;;9176164;19;20357;-72
2022/10/28 11:57:59;;;;;;;30.45;5.13;;;22.60;79.80;;;;;;9173106;19;20014;-72
2022/10/28 12:01:17;;;;;;;15.45;4.10;;;22.50;79.50;;;;;;9175604;19;20488;-72
2022/10/28 12:04:31;;;;;;;31.83;5.00;;;22.60;79.50;;;;;;9173383;19;20123;-72
2022/10/28 12:08:01;;;;;;;20.33;4.70;;;22.60;79.70;;;;;;9175480;19;20018;-72
2022/10/28 12:11:21;;;;;;;13.27;4.22;;;22.70;79.40;;;;;;9175416;19;20021;-71
2022/10/28 12:14:38;;;;;;;18.27;3.70;;;22.70;79.20;;;;;;9175519;19;20453;-72
2022/10/28 12:17:48;;;;;;;18.63;3.60;;;22.70;79.00;;;;;;9174639;19;20106;-73
2022/10/28 12:20:58;;;;;;;21.15;4.32;;;22.70;78.90;;;;;;9174475;19;20018;-72
2022/10/28 12:24:06;;;;;;;11.27;3.40;;;22.70;78.90;;;;;;9173969;19;20026;-72
2022/10/28 12:27:14;;;;;;;27.55;3.17;;;22.70;79.10;;;;;;9174012;19;20015;-71
2022/10/28 12:30:28;;;;;;;12.57;3.42;;;22.80;78.80;;;;;;9168625;19;20014;-73
2022/10/28 12:33:37;;;;;;;21.52;4.30;;;22.80;78.60;;;;;;9169346;19;20371;-73
2022/10/28 12:36:46;;;;;;;24.25;4.47;;;22.80;78.50;;;;;;9174265;19;20011;-73
2022/10/28 12:39:58;;;;;;;17.80;3.95;;;22.80;78.80;;;;;;9170921;19;20022;-72
2022/10/28 12:43:06;;;;;;;16.05;4.32;;;22.80;78.60;;;;;;9174409;19;20015;-72
2022/10/28 12:46:19;;;;;;;27.88;4.18;;;22.80;78.30;;;;;;9173347;19;20081;-73
2022/10/28 12:49:31;;;;;;;16.85;4.60;;;22.80;78.20;;;;;;9172235;19;20047;-73
2022/10/28 12:52:41;;;;;;;19.55;4.25;;;22.90;78.30;;;;;;9173533;19;20078;-72
2022/10/28 12:55:51;;;;;;;22.20;4.45;;;22.80;78.10;;;;;;9173178;19;20046;-73
2022/10/28 12:58:59;;;;;;;19.38;3.90;;;22.80;77.80;;;;;;9173596;19;20014;-73
2022/10/28 13:02:12;;;;;;;16.70;3.75;;;22.80;78.20;;;;;;9172641;19;20015;-72
2022/10/28 13:05:22;;;;;;;28.38;4.88;;;22.80;77.90;;;;;;9170012;19;20444;-73
2022/10/28 13:09:03;;;;;;;16.55;3.95;;;22.80;78.00;;;;;;9169654;19;20015;-73
2022/10/28 13:12:26;;;;;;;14.70;4.00;;;22.80;77.10;;;;;;9169917;19;20014;-72
2022/10/28 13:15:51;;;;;;;20.02;4.10;;;22.80;77.40;;;;;;9172579;19;20086;-73
2022/10/28 13:19:30;;;;;;;21.40;4.35;;;22.80;77.50;;;;;;9170614;19;20048;-71
2022/10/28 13:22:47;;;;;;;17.55;4.00;;;22.80;77.20;;;;;;9166003;19;20018;-71
2022/10/28 13:26:03;;;;;;;16.48;4.57;;;22.80;77.60;;;;;;9166284;19;20056;-72
2022/10/28 13:29:08;;;;;;;20.95;4.72;;;22.80;77.40;;;;;;9161958;19;20019;-72
2022/10/28 13:32:32;;;;;;;18.45;4.30;;;22.70;77.40;;;;;;9161175;19;20026;-72
2022/10/28 13:35:45;;;;;;;16.20;3.70;;;22.80;77.30;;;;;;9164234;19;20019;-72
2022/10/28 13:38:55;;;;;;;19.45;4.15;;;22.70;77.80;;;;;;9166678;19;20021;-72
2022/10/28 13:42:28;;;;;;;22.33;4.50;;;22.70;77.30;;;;;;9165500;19;20368;-73
2022/10/28 13:45:53;;;;;;;21.98;5.07;;;22.80;77.10;;;;;;9167619;19;20021;-72
2022/10/28 13:49:26;;;;;;;15.75;3.80;;;22.70;77.30;;;;;;9172476;19;20014;-72
2022/10/28 13:52:31;;;;;;;16.65;4.28;;;22.80;76.60;;;;;;9173280;19;20069;-74
2022/10/28 13:55:44;;;;;;;18.80;5.35;;;22.70;77.50;;;;;;9174889;19;20789;-72
2022/10/28 13:58:56;;;;;;;19.63;3.95;;;22.70;77.00;;;;;;9172090;19;20018;-73
2022/10/28 14:02:25;;;;;;;14.05;4.20;;;22.70;77.30;;;;;;9172719;19;20624;-71
2022/10/28 14:05:53;;;;;;;20.83;4.32;;;22.70;76.40;;;;;;9167432;19;20046;-70
2022/10/28 14:08:59;;;;;;;17.83;4.03;;;22.70;77.00;;;;;;9169275;19;20668;-73
2022/10/28 14:12:15;;;;;;;18.98;4.50;;;22.70;77.30;;;;;;9170926;19;20360;-73
2022/10/28 14:15:23;;;;;;;13.23;3.65;;;22.70;76.70;;;;;;9171748;19;20867;-70
2022/10/28 14:18:27;;;;;;;14.98;4.20;;;22.70;76.80;;;;;;9170366;19;20018;-71
2022/10/28 14:21:56;;;;;;;20.35;4.65;;;22.70;77.10;;;;;;9170484;19;20026;-74
2022/10/28 14:25:44;;;;;;;18.27;4.35;;;22.70;77.10;;;;;;9168400;19;20046;-75
2022/10/28 14:28:56;;;;;;;21.13;4.68;;;22.60;76.40;;;;;;9169053;19;20071;-72
2022/10/28 14:32:35;;;;;;;22.20;4.57;;;22.60;76.70;;;;;;9166384;19;20023;-70
2022/10/28 14:35:43;;;;;;;16.38;3.88;;;22.60;76.60;;;;;;9167929;19;20018;-73
2022/10/28 14:39:32;;;;;;;13.73;4.38;;;22.60;77.50;;;;;;9169428;19;20063;-72
2022/10/28 14:42:53;;;;;;;15.88;4.28;;;22.60;76.40;;;;;;9170264;19;20122;-71
2022/10/28 14:46:15;;;;;;;17.23;3.90;;;22.50;76.80;;;;;;9169864;19;20678;-73
2022/10/28 14:49:24;;;;;;;21.77;4.90;;;22.50;77.00;;;;;;9168259;19;20014;-73
2022/10/28 14:52:30;;;;;;;22.23;4.75;;;22.40;76.90;;;;;;9169417;19;20018;-71
2022/10/28 14:55:35;;;;;;;20.08;4.28;;;22.40;76.60;;;;;;9169388;19;20003;-72
2022/10/28 14:58:41;;;;;;;13.55;3.72;;;22.40;76.60;;;;;;9167824;19;20022;-71
2022/10/28 15:02:01;;;;;;;23.27;4.18;;;22.30;76.60;;;;;;9167123;19;20027;-73
2022/10/28 15:05:15;;;;;;;16.23;3.78;;;22.30;76.00;;;;;;9166162;19;20039;-73
2022/10/28 15:08:19;;;;;;;21.73;3.63;;;22.30;76.50;;;;;;9168926;19;20026;-72
2022/10/28 15:11:24;;;;;;;16.92;3.90;;;22.20;76.30;;;;;;9165547;19;20481;-71
2022/10/28 15:14:31;;;;;;;15.60;3.90;;;22.20;76.10;;;;;;9170618;19;20025;-72
2022/10/28 15:17:41;;;;;;;12.93;3.72;;;22.10;76.00;;;;;;9169304;19;20018;-69
2022/10/28 15:20:44;;;;;;;20.67;3.55;;;22.10;76.20;;;;;;9169684;19;20029;-70
2022/10/28 15:24:05;;;;;;;11.90;3.45;;;22.00;76.30;;;;;;9167923;19;20094;-72
2022/10/28 15:27:13;;;;;;;17.05;4.15;;;22.00;75.80;;;;;;9167943;19;20042;-72
2022/10/28 15:30:22;;;;;;;16.38;4.25;;;22.00;76.30;;;;;;9165882;19;20014;-72
2022/10/28 15:33:32;;;;;;;23.60;3.88;;;21.90;76.30;;;;;;9163049;19;20098;-73
2022/10/28 15:36:35;;;;;;;21.50;4.75;;;21.90;76.00;;;;;;9168332;19;20624;-73
2022/10/28 15:39:39;;;;;;;;;;;21.90;76.50;;;;;;9168160;19;20019;-71
2022/10/28 15:42:45;;;;;;;20.25;3.80;;;21.80;76.30;;;;;;9168413;19;20010;-72
2022/10/28 15:45:49;;;;;;;25.50;4.03;;;21.80;76.80;;;;;;9167125;19;20022;-72
2022/10/28 15:48:55;;;;;;;27.10;5.10;;;21.80;76.20;;;;;;9164933;19;20070;-71
2022/10/28 15:52:29;;;;;;;17.90;3.75;;;21.70;76.30;;;;;;9167117;19;20062;-71
2022/10/28 15:55:34;;;;;;;21.90;4.43;;;21.70;76.30;;;;;;9163924;19;20044;-72
2022/10/28 15:59:14;;;;;;;14.65;3.80;;;21.60;76.60;;;;;;9161869;19;20015;-68
2022/10/28 16:02:42;;;;;;;12.73;3.85;;;21.60;76.50;;;;;;9161002;19;20014;-72
2022/10/28 16:05:49;;;;;;;24.33;4.85;;;21.50;76.00;;;;;;9151920;19;20086;-72
2022/10/28 16:09:12;;;;;;;25.23;4.05;;;21.50;77.00;;;;;;9163159;19;20028;-73
2022/10/28 16:12:19;;;;;;;21.00;4.60;;;21.40;75.70;;;;;;9159968;19;20093;-70
2022/10/28 16:15:23;;;;;;;15.43;3.90;;;21.40;76.60;;;;;;9161856;19;20022;-71
2022/10/28 16:18:29;;;;;;;13.50;4.03;;;21.30;76.50;;;;;;9163197;19;20015;-69